createdAt,value
2024-05-09T00:03:00.990Z,17.73
2024-05-09T00:08:01.154Z,17.70
2024-05-09T00:13:01.016Z,17.67
2024-05-09T00:19:23.170Z,17.61
2024-05-09T00:24:23.028Z,17.57
2024-05-09T00:29:22.970Z,17.52
2024-05-09T00:35:13.870Z,17.51
2024-05-09T00:40:18.247Z,17.50
2024-05-09T00:45:13.924Z,17.48
2024-05-09T00:50:12.690Z,17.44
2024-05-09T00:55:09.480Z,17.42
2024-05-09T01:00:18.071Z,17.39
2024-05-09T01:05:27.068Z,17.35
2024-05-09T01:10:31.887Z,17.30
2024-05-09T01:15:27.092Z,17.28
2024-05-09T01:19:37.496Z,17.28
2024-05-09T01:24:37.475Z,17.27
2024-05-09T01:29:37.523Z,17.24
2024-05-09T01:35:07.531Z,17.20
2024-05-09T01:40:09.679Z,17.17
2024-05-09T01:45:07.463Z,17.12
2024-05-09T01:50:51.879Z,17.11
2024-05-09T01:55:51.940Z,17.08
2024-05-09T02:00:52.103Z,17.11
2024-05-09T02:05:41.084Z,17.11
2024-05-09T02:10:41.120Z,17.05
2024-05-09T02:15:41.113Z,17.03
2024-05-09T02:20:50.632Z,16.99
2024-05-09T02:25:50.580Z,16.97
2024-05-09T02:30:50.552Z,16.95
2024-05-09T02:36:22.698Z,16.93
2024-05-09T02:41:22.829Z,16.93
2024-05-09T02:46:22.706Z,16.92
2024-05-09T02:49:14.657Z,16.92
2024-05-09T02:54:14.672Z,16.90
2024-05-09T02:59:14.700Z,16.85
2024-05-09T03:05:15.911Z,16.84
2024-05-09T03:10:18.565Z,16.80
2024-05-09T03:15:15.844Z,16.79
2024-05-09T03:19:52.462Z,16.80
2024-05-09T03:24:52.425Z,16.78
2024-05-09T03:29:52.434Z,16.78
2024-05-09T03:34:53.891Z,16.77
2024-05-09T03:39:53.787Z,16.73
2024-05-09T03:44:53.899Z,16.68
2024-05-09T03:51:03.445Z,16.66
2024-05-09T03:56:03.472Z,16.63
2024-05-09T04:01:03.468Z,16.62
2024-05-09T04:05:36.055Z,16.66
2024-05-09T04:10:36.075Z,16.65
2024-05-09T04:15:36.063Z,16.61
2024-05-09T04:20:37.644Z,16.58
2024-05-09T04:25:35.005Z,16.57
2024-05-09T04:30:37.671Z,16.53
2024-05-09T04:35:56.073Z,16.49
2024-05-09T04:40:56.078Z,16.45
2024-05-09T04:45:56.132Z,16.48
2024-05-09T04:52:20.037Z,16.48
2024-05-09T04:57:19.995Z,16.46
2024-05-09T05:02:19.994Z,16.42
2024-05-09T05:05:48.680Z,16.43
2024-05-09T05:10:49.161Z,16.37
2024-05-09T05:15:48.742Z,16.32
2024-05-09T05:20:27.284Z,16.31
2024-05-09T05:25:22.252Z,16.34
2024-05-09T05:30:25.464Z,16.34
2024-05-09T05:35:37.601Z,16.35
2024-05-09T05:40:38.297Z,16.32
2024-05-09T05:45:37.557Z,16.27
2024-05-09T05:53:00.790Z,16.26
2024-05-09T05:58:00.784Z,16.21
2024-05-09T06:03:00.804Z,16.18
2024-05-09T06:08:06.274Z,16.22
2024-05-09T06:13:06.396Z,16.22
2024-05-09T06:18:06.481Z,16.24
2024-05-09T06:21:42.518Z,16.23
2024-05-09T06:26:42.593Z,16.20
2024-05-09T06:31:42.662Z,16.18
2024-05-09T06:37:30.868Z,16.15
2024-05-09T06:42:30.754Z,16.12
2024-05-09T06:47:30.830Z,16.10
2024-05-09T06:51:55.400Z,16.13
2024-05-09T06:56:55.476Z,16.15
2024-05-09T07:01:55.444Z,16.11
2024-05-09T07:08:13.854Z,16.12
2024-05-09T07:13:13.833Z,16.12
2024-05-09T07:18:13.876Z,16.09
2024-05-09T07:23:09.881Z,16.09
2024-05-09T07:28:09.604Z,16.07
2024-05-09T07:33:09.846Z,16.08
2024-05-09T07:37:48.741Z,16.12
2024-05-09T07:42:48.629Z,16.13
2024-05-09T07:48:28.775Z,16.14
2024-05-09T07:53:29.624Z,16.12
2024-05-09T07:58:03.962Z,16.11
2024-05-09T08:03:04.114Z,16.10
2024-05-09T08:09:07.845Z,16.09
2024-05-09T08:14:05.148Z,16.09
2024-05-09T08:19:05.240Z,16.12
2024-05-09T08:23:26.893Z,16.12
2024-05-09T08:28:26.858Z,16.12
2024-05-09T08:33:26.968Z,16.13
2024-05-09T08:37:36.661Z,16.14
2024-05-09T08:42:32.873Z,16.14
2024-05-09T08:47:32.910Z,16.16
2024-05-09T08:53:00.792Z,16.16
2024-05-09T08:58:00.844Z,16.16
2024-05-09T09:03:00.821Z,16.18
2024-05-09T09:07:42.151Z,16.19
2024-05-09T09:12:42.041Z,16.19
2024-05-09T09:17:42.061Z,16.20
2024-05-09T09:23:29.059Z,16.23
2024-05-09T09:28:29.185Z,16.24
2024-05-09T09:33:29.170Z,16.26
2024-05-09T09:39:32.058Z,16.27
2024-05-09T09:44:32.268Z,16.31
2024-05-09T09:49:32.035Z,16.34
2024-05-09T09:53:38.565Z,16.37
2024-05-09T09:58:38.371Z,16.41
2024-05-09T10:03:38.566Z,16.43
2024-05-09T10:09:04.229Z,16.46
2024-05-09T10:14:04.224Z,16.47
2024-05-09T10:19:04.312Z,16.49
2024-05-09T10:22:59.556Z,16.53
2024-05-09T10:27:59.633Z,16.59
2024-05-09T10:32:59.624Z,16.65
2024-05-09T10:39:46.236Z,16.72
2024-05-09T10:44:46.226Z,16.75
2024-05-09T10:49:46.271Z,16.78
2024-05-09T10:53:17.942Z,16.81
2024-05-09T10:58:18.094Z,16.82
2024-05-09T11:03:17.979Z,16.83
2024-05-09T11:09:31.686Z,16.88
2024-05-09T11:14:31.673Z,16.93
2024-05-09T11:19:31.742Z,16.99
2024-05-09T11:23:37.975Z,17.04
2024-05-09T11:28:37.982Z,17.07
2024-05-09T11:33:38.189Z,17.11
2024-05-09T11:39:35.716Z,17.18
2024-05-09T11:44:35.749Z,17.24
2024-05-09T11:49:35.710Z,17.31
2024-05-09T11:55:10.990Z,17.35
2024-05-09T12:00:14.831Z,17.41
2024-05-09T12:05:11.058Z,17.41
2024-05-09T12:09:09.107Z,17.45
2024-05-09T12:14:09.095Z,17.50
2024-05-09T12:19:09.188Z,17.54
2024-05-09T12:26:14.428Z,17.60
2024-05-09T12:31:14.444Z,17.65
2024-05-09T12:36:14.416Z,17.67
2024-05-09T12:40:39.021Z,17.72
2024-05-09T12:45:38.355Z,17.76
2024-05-09T12:50:38.170Z,17.81
2024-05-09T12:56:01.569Z,17.83
2024-05-09T13:00:57.196Z,17.85
2024-05-09T13:05:57.165Z,17.83
2024-05-09T13:10:58.992Z,17.77
2024-05-09T13:15:58.730Z,17.76
2024-05-09T13:20:58.671Z,17.81
2024-05-09T13:25:00.901Z,17.84
2024-05-09T13:30:00.624Z,17.90
2024-05-09T13:35:00.692Z,17.91
2024-05-09T13:40:29.740Z,17.90
2024-05-09T13:45:25.428Z,17.87
2024-05-09T13:50:30.980Z,17.87
2024-05-09T13:57:03.949Z,17.87
2024-05-09T14:02:04.006Z,17.85
2024-05-09T14:07:04.195Z,17.84
2024-05-09T14:09:57.126Z,17.84
2024-05-09T14:14:56.856Z,17.84
2024-05-09T14:19:56.963Z,17.81
2024-05-09T14:25:29.916Z,17.80
2024-05-09T14:30:31.266Z,17.79
2024-05-09T14:35:30.018Z,17.80
2024-05-09T14:40:43.410Z,17.79
2024-05-09T14:45:42.367Z,17.79
2024-05-09T14:50:42.159Z,17.80
2024-05-09T14:56:05.406Z,17.80
2024-05-09T15:01:05.504Z,17.80
2024-05-09T15:06:05.526Z,17.78
2024-05-09T15:10:55.472Z,17.77
2024-05-09T15:15:55.373Z,17.75
2024-05-09T15:20:55.304Z,17.72
2024-05-09T15:25:55.905Z,17.71
2024-05-09T15:30:55.944Z,17.72
2024-05-09T15:35:55.922Z,17.73
2024-05-09T15:40:51.309Z,17.73
2024-05-09T15:45:51.339Z,17.70
2024-05-09T15:50:51.294Z,17.67
2024-05-09T15:56:41.117Z,17.63
2024-05-09T16:01:41.095Z,17.60
2024-05-09T16:06:41.031Z,17.57
2024-05-09T16:13:06.339Z,17.57
2024-05-09T16:18:06.393Z,17.56
2024-05-09T16:23:06.435Z,17.54
2024-05-09T16:26:06.247Z,17.54
2024-05-09T16:31:06.674Z,17.50
2024-05-09T16:36:06.244Z,17.47
2024-05-09T16:41:40.683Z,17.44
2024-05-09T16:46:40.646Z,17.41
2024-05-09T16:51:40.634Z,17.39
2024-05-09T16:58:02.660Z,17.40
2024-05-09T17:03:02.387Z,17.39
2024-05-09T17:08:02.455Z,17.36
2024-05-09T17:12:57.147Z,17.32
2024-05-09T17:17:57.149Z,17.28
2024-05-09T17:22:57.146Z,17.24
2024-05-09T17:26:57.845Z,17.22
2024-05-09T17:31:57.731Z,17.18
2024-05-09T17:36:57.908Z,17.17
2024-05-09T17:44:11.454Z,17.18
2024-05-09T17:49:11.466Z,17.16
2024-05-09T17:54:11.487Z,17.14
2024-05-09T17:57:08.504Z,17.13
2024-05-09T18:02:08.638Z,17.09
2024-05-09T18:07:08.741Z,17.06
2024-05-09T18:13:55.294Z,17.00
2024-05-09T18:18:55.535Z,16.96
2024-05-09T18:23:56.803Z,16.95
2024-05-09T18:29:18.498Z,16.95
2024-05-09T18:34:16.725Z,16.91
2024-05-09T18:39:16.755Z,16.88
2024-05-09T18:44:40.998Z,16.85
2024-05-09T18:49:41.049Z,16.79
2024-05-09T18:54:41.088Z,16.76
2024-05-09T18:59:50.962Z,16.73
2024-05-09T19:04:50.970Z,16.71
2024-05-09T19:09:50.955Z,16.71
2024-05-09T19:13:14.025Z,16.70
2024-05-09T19:18:13.951Z,16.68
2024-05-09T19:23:13.486Z,16.67
2024-05-09T19:28:47.142Z,16.64
2024-05-09T19:33:47.252Z,16.59
2024-05-09T19:38:47.141Z,16.55
2024-05-09T19:44:39.376Z,16.51
2024-05-09T19:49:39.416Z,16.48
2024-05-09T19:54:39.685Z,16.46
2024-05-09T20:00:09.638Z,16.43
2024-05-09T20:05:07.375Z,16.40
2024-05-09T20:10:10.547Z,16.36
2024-05-09T20:15:26.308Z,16.35
2024-05-09T20:20:28.832Z,16.32
2024-05-09T20:25:26.411Z,16.28
2024-05-09T20:30:06.601Z,16.25
2024-05-09T20:35:04.113Z,16.23
2024-05-09T20:40:06.350Z,16.20
2024-05-09T20:44:58.667Z,16.20
2024-05-09T20:49:58.547Z,16.16
2024-05-09T20:54:58.323Z,16.12
2024-05-09T20:58:36.666Z,16.10
2024-05-09T21:03:36.712Z,16.05
2024-05-09T21:08:36.647Z,16.00
2024-05-09T21:15:55.638Z,15.96
2024-05-09T21:20:55.530Z,15.95
2024-05-09T21:25:55.509Z,15.93
2024-05-09T21:30:33.051Z,15.92
2024-05-09T21:35:30.605Z,15.89
2024-05-09T21:40:33.016Z,15.86
2024-05-09T21:45:18.507Z,15.81
2024-05-09T21:50:22.253Z,15.78
2024-05-09T21:55:18.541Z,15.73
2024-05-09T21:58:56.452Z,15.71
2024-05-09T22:03:56.874Z,15.70
2024-05-09T22:08:56.428Z,15.68
2024-05-09T22:15:19.649Z,15.64
2024-05-09T22:20:25.315Z,15.59
2024-05-09T22:25:19.712Z,15.56
2024-05-09T22:30:34.919Z,15.54
2024-05-09T22:35:30.900Z,15.50
2024-05-09T22:40:37.384Z,15.45
2024-05-09T22:45:19.160Z,15.42
2024-05-09T22:50:26.022Z,15.42
2024-05-09T22:55:19.145Z,15.40
2024-05-09T23:01:02.277Z,15.36
2024-05-09T23:06:02.210Z,15.33
2024-05-09T23:11:02.320Z,15.30
2024-05-09T23:14:51.659Z,15.26
2024-05-09T23:19:51.614Z,15.22
2024-05-09T23:24:51.710Z,15.17
2024-05-09T23:30:35.805Z,15.14
2024-05-09T23:35:26.280Z,15.12
2024-05-09T23:40:34.692Z,15.09
2024-05-09T23:45:34.543Z,15.07
2024-05-09T23:50:36.243Z,15.06
2024-05-09T23:55:34.313Z,15.02
